createdAt,value
2018-07-19T00:00:52.378Z,11.9
2018-07-19T00:01:52.280Z,11.9
2018-07-19T00:02:52.400Z,11.9
2018-07-19T00:03:52.308Z,11.8
2018-07-19T00:04:52.315Z,11.8
2018-07-19T00:05:52.278Z,11.7
2018-07-19T00:06:52.370Z,11.7
2018-07-19T00:07:52.254Z,11.7
2018-07-19T00:08:53.013Z,11.7
2018-07-19T00:10:52.271Z,11.5
2018-07-19T00:11:54.231Z,11.5
2018-07-19T00:12:52.273Z,11.5
2018-07-19T00:13:52.294Z,11.5
2018-07-19T00:14:52.318Z,11.5
2018-07-19T00:15:52.293Z,11.5
2018-07-19T00:16:52.316Z,11.6
2018-07-19T00:17:52.319Z,11.6
2018-07-19T00:29:58.267Z,11.4
2018-07-19T00:30:58.356Z,11.4
2018-07-19T00:31:58.230Z,11.3
2018-07-19T00:33:58.273Z,11.2
2018-07-19T00:34:58.229Z,11.2
2018-07-19T00:35:58.353Z,11.2
2018-07-19T00:36:58.319Z,11.1
2018-07-19T00:37:58.306Z,11.1
2018-07-19T00:38:58.298Z,11.1
2018-07-19T00:40:51.215Z,11.1
2018-07-19T00:41:00.251Z,11.1
2018-07-19T00:43:00.261Z,11.1
2018-07-19T00:44:00.268Z,11.0
2018-07-19T00:45:00.361Z,11.0
2018-07-19T00:46:00.546Z,11.0
2018-07-19T00:48:00.321Z,11.0
2018-07-19T00:49:00.322Z,11.0
2018-07-19T00:50:00.953Z,11.0
2018-07-19T00:52:13.817Z,10.9
2018-07-19T00:53:12.799Z,10.9
2018-07-19T00:54:12.795Z,11.0
2018-07-19T00:55:12.764Z,11.0
2018-07-19T00:56:12.759Z,11.0
2018-07-19T00:57:12.824Z,10.8
2018-07-19T00:58:12.789Z,10.8
2018-07-19T00:59:12.724Z,10.8
2018-07-19T01:00:12.817Z,10.8
2018-07-19T01:01:12.817Z,10.8
2018-07-19T01:02:12.756Z,10.7
2018-07-19T01:03:12.808Z,10.7
2018-07-19T01:04:12.790Z,10.7
2018-07-19T01:05:12.797Z,10.6
2018-07-19T01:06:12.896Z,10.6
2018-07-19T01:07:12.753Z,10.7
2018-07-19T01:08:12.936Z,10.7
2018-07-19T01:09:12.824Z,10.7
2018-07-19T01:10:12.871Z,10.8
2018-07-19T01:11:12.777Z,10.8
2018-07-19T01:12:13.400Z,10.8
2018-07-19T01:13:12.840Z,10.8
2018-07-19T01:14:12.968Z,10.8
2018-07-19T01:15:12.877Z,10.7
2018-07-19T01:17:12.841Z,10.7
2018-07-19T01:18:12.870Z,10.7
2018-07-19T01:19:12.941Z,10.7
2018-07-19T01:20:12.991Z,10.6
2018-07-19T01:21:12.868Z,10.6
2018-07-19T01:23:54.032Z,10.6
2018-07-19T01:25:09.374Z,10.5
2018-07-19T01:26:09.510Z,10.5
2018-07-19T01:27:09.452Z,10.4
2018-07-19T01:28:09.420Z,10.4
2018-07-19T01:30:09.447Z,10.4
2018-07-19T01:31:10.019Z,10.4
2018-07-19T01:32:09.501Z,10.4
2018-07-19T01:34:22.081Z,10.3
2018-07-19T01:35:22.142Z,10.2
2018-07-19T01:36:22.124Z,10.2
2018-07-19T01:37:22.141Z,10.2
2018-07-19T01:38:22.041Z,10.2
2018-07-19T01:39:22.083Z,10.2
2018-07-19T01:40:22.107Z,10.4
2018-07-19T01:41:22.127Z,10.4
2018-07-19T01:42:22.071Z,10.6
2018-07-19T01:43:22.095Z,10.6
2018-07-19T01:45:22.035Z,10.6
2018-07-19T01:46:22.120Z,10.6
2018-07-19T01:47:22.061Z,10.6
2018-07-19T01:48:22.125Z,10.5
2018-07-19T01:49:22.175Z,10.5
2018-07-19T01:50:22.074Z,10.4
2018-07-19T01:51:22.156Z,10.4
2018-07-19T01:52:22.072Z,10.4
2018-07-19T01:53:22.131Z,10.4
2018-07-19T01:54:24.153Z,10.4
2018-07-19T01:55:22.117Z,10.4
2018-07-19T01:56:22.225Z,10.4
2018-07-19T01:57:22.646Z,10.4
2018-07-19T01:58:22.154Z,10.3
2018-07-19T01:59:22.006Z,10.3
2018-07-19T02:00:22.651Z,10.2
2018-07-19T02:01:22.133Z,10.2
2018-07-19T02:02:22.042Z,10.2
2018-07-19T02:03:22.085Z,10.1
2018-07-19T02:04:22.128Z,10.1
2018-07-19T02:05:22.028Z,10.0
2018-07-19T02:07:23.361Z,10.0
2018-07-19T02:08:22.169Z,10.2
2018-07-19T02:10:22.114Z,10.2
2018-07-19T02:11:22.155Z,10.2
2018-07-19T02:12:22.077Z,10.2
2018-07-19T02:13:22.706Z,10.3
2018-07-19T02:14:22.165Z,10.3
2018-07-19T02:15:22.100Z,10.3
2018-07-19T02:16:22.173Z,10.2
2018-07-19T02:17:22.151Z,10.2
2018-07-19T02:18:22.105Z,10.1
2018-07-19T02:19:22.094Z,10.1
2018-07-19T02:20:22.080Z,10.1
2018-07-19T02:21:22.073Z,10.0
2018-07-19T02:22:22.164Z,10.0
2018-07-19T02:23:38.417Z,10.1
2018-07-19T02:24:22.915Z,10.1
2018-07-19T02:25:22.111Z,10.1
2018-07-19T02:26:22.120Z,10.0
2018-07-19T02:27:22.185Z,10.0
2018-07-19T02:29:22.189Z,10.1
2018-07-19T02:32:22.188Z,10.0
2018-07-19T02:33:25.134Z,10.2
2018-07-19T02:34:22.161Z,10.2
2018-07-19T02:35:22.824Z,10.2
2018-07-19T02:36:22.816Z,10.3
2018-07-19T02:37:22.160Z,10.3
2018-07-19T02:38:22.179Z,10.2
2018-07-19T02:39:22.195Z,10.2
2018-07-19T02:40:22.228Z,10.2
2018-07-19T02:41:22.201Z,10.3
2018-07-19T02:42:22.279Z,10.3
2018-07-19T02:43:22.177Z,10.3
2018-07-19T02:45:22.130Z,10.4
2018-07-19T02:46:22.217Z,10.1
2018-07-19T02:47:22.169Z,10.1
2018-07-19T02:48:22.227Z,10.1
2018-07-19T02:49:22.168Z,9.9
2018-07-19T02:50:22.290Z,9.9
2018-07-19T02:52:22.279Z,9.9
2018-07-19T02:53:22.243Z,9.9
2018-07-19T02:54:22.244Z,9.7
2018-07-19T02:55:22.200Z,9.7
2018-07-19T02:56:22.269Z,9.6
2018-07-19T02:57:22.204Z,9.6
2018-07-19T02:58:22.797Z,9.6
2018-07-19T02:59:22.292Z,9.8
2018-07-19T03:00:22.706Z,9.8
2018-07-19T03:01:22.246Z,9.7
2018-07-19T03:02:22.300Z,9.7
2018-07-19T03:03:22.231Z,9.7
2018-07-19T03:04:22.371Z,9.6
2018-07-19T03:05:22.202Z,9.6
2018-07-19T03:06:22.318Z,9.6
2018-07-19T03:07:22.238Z,9.6
2018-07-19T03:08:22.253Z,9.6
2018-07-19T03:09:22.213Z,9.8
2018-07-19T03:10:22.368Z,9.8
2018-07-19T03:11:22.229Z,9.9
2018-07-19T03:12:22.342Z,9.9
2018-07-19T03:13:22.332Z,9.9
2018-07-19T03:14:22.314Z,9.8
2018-07-19T03:15:22.281Z,9.8
2018-07-19T03:16:22.921Z,9.8
2018-07-19T03:17:22.309Z,9.8
2018-07-19T03:19:22.293Z,9.7
2018-07-19T03:20:22.391Z,9.7
2018-07-19T03:21:22.259Z,9.7
2018-07-19T03:22:22.263Z,9.6
2018-07-19T03:23:22.297Z,9.6
2018-07-19T03:24:22.274Z,9.5
2018-07-19T03:25:22.272Z,9.5
2018-07-19T03:26:22.387Z,9.5
2018-07-19T03:27:22.258Z,9.6
2018-07-19T03:28:22.287Z,9.6
2018-07-19T03:29:24.480Z,9.8
2018-07-19T03:30:22.270Z,9.8
2018-07-19T03:31:22.272Z,9.8
2018-07-19T03:32:22.414Z,9.8
2018-07-19T03:33:22.296Z,9.8
2018-07-19T03:34:23.528Z,9.6
2018-07-19T03:35:22.234Z,9.6
2018-07-19T03:37:22.353Z,9.6
2018-07-19T03:38:22.286Z,9.6
2018-07-19T03:41:13.198Z,9.5
2018-07-19T03:42:13.173Z,9.3
2018-07-19T03:43:13.123Z,9.3
2018-07-19T03:44:13.182Z,9.3
2018-07-19T03:45:13.175Z,9.5
2018-07-19T03:46:13.194Z,9.5
2018-07-19T03:47:13.284Z,9.4
2018-07-19T03:48:13.239Z,9.4
2018-07-19T03:49:13.221Z,9.4
2018-07-19T03:51:26.323Z,9.4
2018-07-19T03:52:26.459Z,9.3
2018-07-19T03:53:26.325Z,9.3
2018-07-19T03:54:27.097Z,9.3
2018-07-19T03:55:26.346Z,9.3
2018-07-19T03:56:26.497Z,9.3
2018-07-19T03:57:26.401Z,9.3
2018-07-19T03:58:26.466Z,9.3
2018-07-19T03:59:26.412Z,9.3
2018-07-19T04:02:26.426Z,9.6
2018-07-19T04:03:26.474Z,9.6
2018-07-19T04:04:26.396Z,9.6
2018-07-19T04:05:26.512Z,9.5
2018-07-19T04:06:26.600Z,9.5
2018-07-19T04:07:26.420Z,9.5
2018-07-19T04:10:26.475Z,9.4
2018-07-19T04:11:26.469Z,9.4
2018-07-19T04:12:26.569Z,9.4
2018-07-19T04:13:26.388Z,9.4
2018-07-19T04:15:26.382Z,9.5
2018-07-19T04:16:26.411Z,9.5
2018-07-19T04:18:26.488Z,9.4
2018-07-19T04:19:27.012Z,9.4
2018-07-19T04:20:26.441Z,9.4
2018-07-19T04:21:26.451Z,9.4
2018-07-19T04:22:26.498Z,9.4
2018-07-19T04:23:26.444Z,9.5
2018-07-19T04:24:26.494Z,9.5
2018-07-19T04:26:26.433Z,9.6
2018-07-19T04:27:26.456Z,9.6
2018-07-19T04:28:26.524Z,9.8
2018-07-19T04:29:26.415Z,9.8
2018-07-19T04:30:27.098Z,10.0
2018-07-19T04:31:26.423Z,10.0
2018-07-19T04:33:26.490Z,10.0
2018-07-19T04:34:26.442Z,10.0
2018-07-19T04:35:26.513Z,10.0
2018-07-19T04:36:26.524Z,10.0
2018-07-19T04:37:27.114Z,10.0
2018-07-19T04:39:26.548Z,10.0
2018-07-19T04:40:26.501Z,10.1
2018-07-19T04:41:26.500Z,10.1
2018-07-19T04:42:26.635Z,10.1
2018-07-19T04:43:26.521Z,10.3
2018-07-19T04:44:26.518Z,10.3
2018-07-19T04:45:26.503Z,10.5
2018-07-19T04:46:26.568Z,10.5
2018-07-19T04:47:26.507Z,10.5
2018-07-19T04:48:26.625Z,10.8
2018-07-19T04:49:26.466Z,10.8
2018-07-19T04:50:26.490Z,10.8
2018-07-19T04:51:27.173Z,11.2
2018-07-19T04:52:26.656Z,11.2
2018-07-19T04:53:27.667Z,11.2
2018-07-19T04:54:27.328Z,11.2
2018-07-19T04:56:27.175Z,12.0
2018-07-19T04:57:26.548Z,12.0
2018-07-19T04:58:26.534Z,12.5
2018-07-19T04:59:26.629Z,12.5
2018-07-19T05:00:26.706Z,12.5
2018-07-19T05:01:26.461Z,12.7
2018-07-19T05:02:26.523Z,12.7
2018-07-19T05:03:26.645Z,12.9
2018-07-19T05:05:26.438Z,12.9
2018-07-19T05:06:26.528Z,13.2
2018-07-19T05:07:26.553Z,13.2
2018-07-19T05:08:26.500Z,13.5
2018-07-19T05:09:26.539Z,13.5
2018-07-19T05:10:26.476Z,13.5
2018-07-19T05:11:27.132Z,13.6
2018-07-19T05:12:26.520Z,13.6
2018-07-19T05:13:26.582Z,13.6
2018-07-19T05:14:26.573Z,13.6
2018-07-19T05:23:36.792Z,13.6
2018-07-19T05:24:46.974Z,14.7
2018-07-19T05:25:46.988Z,14.7
2018-07-19T05:26:46.974Z,15.2
2018-07-19T05:27:46.929Z,15.2
2018-07-19T05:28:47.030Z,15.8
2018-07-19T05:30:46.971Z,15.8
2018-07-19T05:31:47.091Z,16.1
2018-07-19T05:33:47.244Z,16.1
2018-07-19T05:34:47.123Z,16.1
2018-07-19T05:35:47.273Z,16.1
2018-07-19T05:36:47.239Z,15.9
2018-07-19T05:37:47.117Z,15.9
2018-07-19T05:38:47.112Z,16.0
2018-07-19T05:39:47.100Z,16.0
2018-07-19T05:40:47.037Z,16.0
2018-07-19T05:41:47.174Z,16.2
2018-07-19T05:43:47.045Z,16.2
2018-07-19T05:44:48.293Z,16.7
2018-07-19T05:45:47.093Z,16.7
2018-07-19T05:46:48.115Z,17.0
2018-07-19T05:47:47.097Z,17.0
2018-07-19T05:48:47.057Z,17.0
2018-07-19T05:49:47.139Z,17.3
2018-07-19T05:53:47.142Z,17.6
2018-07-19T05:55:47.133Z,17.8
2018-07-19T05:56:47.140Z,18.2
2018-07-19T05:58:47.209Z,18.2
2018-07-19T06:01:47.074Z,19.1
2018-07-19T06:02:47.148Z,19.1
2018-07-19T06:03:47.033Z,19.1
2018-07-19T06:04:47.098Z,19.3
2018-07-19T06:05:47.099Z,19.3
2018-07-19T06:06:48.116Z,19.6
2018-07-19T06:07:47.085Z,19.6
2018-07-19T06:08:47.065Z,19.6
2018-07-19T06:10:48.147Z,19.9
2018-07-19T06:11:47.100Z,19.9
2018-07-19T06:12:47.028Z,20.2
2018-07-19T06:13:47.032Z,20.2
2018-07-19T06:14:47.263Z,20.2
2018-07-19T06:15:47.038Z,20.2
2018-07-19T06:16:47.139Z,20.2
2018-07-19T06:17:47.034Z,20.1
2018-07-19T06:18:47.200Z,20.1
2018-07-19T06:19:47.139Z,20.3
2018-07-19T06:20:47.744Z,20.3
2018-07-19T06:21:47.058Z,20.3
2018-07-19T06:23:47.049Z,20.6
2018-07-19T06:24:47.095Z,21.1
2018-07-19T06:25:47.102Z,21.1
2018-07-19T06:26:47.156Z,21.1
2018-07-19T06:27:47.156Z,21.0
2018-07-19T06:28:47.073Z,21.0
2018-07-19T06:29:47.116Z,20.7
2018-07-19T06:30:47.826Z,20.7
2018-07-19T06:31:47.039Z,20.7
2018-07-19T06:32:47.178Z,20.7
2018-07-19T06:33:47.108Z,20.7
2018-07-19T06:34:47.201Z,20.9
2018-07-19T06:35:47.120Z,20.9
2018-07-19T06:36:47.052Z,20.9
2018-07-19T06:37:47.102Z,20.9
2018-07-19T06:38:47.137Z,20.9
2018-07-19T06:39:47.819Z,21.1
2018-07-19T06:40:47.698Z,21.1
2018-07-19T06:41:47.109Z,21.1
2018-07-19T06:42:47.226Z,21.4
2018-07-19T06:43:47.852Z,21.4
2018-07-19T06:44:47.235Z,21.4
2018-07-19T06:45:47.730Z,21.7
2018-07-19T06:46:47.792Z,21.7
2018-07-19T06:47:47.201Z,22.1
2018-07-19T06:49:47.196Z,22.1
2018-07-19T06:51:39.686Z,22.4
2018-07-19T06:51:49.446Z,22.4
2018-07-19T06:52:48.895Z,22.6
2018-07-19T06:53:48.855Z,22.6
2018-07-19T06:54:48.947Z,22.6
2018-07-19T06:55:49.612Z,22.6
2018-07-19T06:57:49.494Z,22.4
2018-07-19T06:58:48.886Z,22.4
2018-07-19T06:59:49.041Z,22.4
2018-07-19T07:00:50.256Z,22.4
2018-07-19T07:01:48.915Z,22.4
2018-07-19T07:02:50.147Z,22.4
2018-07-19T07:03:49.043Z,22.4
2018-07-19T07:04:48.928Z,22.4
2018-07-19T07:05:48.968Z,22.3
2018-07-19T07:06:48.965Z,22.3
2018-07-19T07:07:50.359Z,22.5
2018-07-19T07:08:48.951Z,22.5
2018-07-19T07:09:49.933Z,22.5
2018-07-19T07:11:00.495Z,22.4
2018-07-19T07:11:48.961Z,22.4
2018-07-19T07:12:48.949Z,22.4
2018-07-19T07:13:48.976Z,22.4
2018-07-19T07:14:49.595Z,22.4
2018-07-19T07:15:49.625Z,22.8
2018-07-19T07:16:48.994Z,22.8
2018-07-19T07:17:49.535Z,22.8
2018-07-19T07:18:48.998Z,22.7
2018-07-19T07:19:49.042Z,22.7
2018-07-19T07:20:49.599Z,22.7
2018-07-19T07:21:48.968Z,22.7
2018-07-19T07:22:49.022Z,22.7
2018-07-19T07:23:48.947Z,22.5
2018-07-19T07:24:48.983Z,22.5
2018-07-19T07:25:48.929Z,22.9
2018-07-19T07:26:48.922Z,22.9
2018-07-19T07:28:49.021Z,22.8
2018-07-19T07:29:49.542Z,22.8
2018-07-19T07:30:49.060Z,22.9
2018-07-19T07:31:48.955Z,22.9
2018-07-19T07:32:48.960Z,22.9
2018-07-19T07:33:48.974Z,22.9
2018-07-19T07:34:48.967Z,22.9
2018-07-19T07:35:49.048Z,22.9
2018-07-19T07:37:49.041Z,22.9
2018-07-19T07:38:49.029Z,23.5
2018-07-19T07:39:50.047Z,23.5
2018-07-19T07:40:48.986Z,23.0
2018-07-19T07:41:49.573Z,23.0
2018-07-19T07:43:48.954Z,23.2
2018-07-19T07:46:49.616Z,23.2
2018-07-19T07:48:49.075Z,23.4
2018-07-19T07:49:49.018Z,23.4
2018-07-19T07:50:49.080Z,23.4
2018-07-19T07:51:49.021Z,23.4
2018-07-19T07:52:49.616Z,23.4
2018-07-19T07:53:50.255Z,23.0
2018-07-19T07:54:49.756Z,23.0
2018-07-19T07:55:48.954Z,23.0
2018-07-19T07:56:49.599Z,23.4
2018-07-19T07:57:48.931Z,23.4
2018-07-19T07:58:48.959Z,23.2
2018-07-19T07:59:49.044Z,23.2
2018-07-19T08:01:49.032Z,23.4
2018-07-19T08:02:49.111Z,23.4
2018-07-19T08:04:49.092Z,24.0
2018-07-19T08:05:49.134Z,24.0
2018-07-19T08:06:49.793Z,24.4
2018-07-19T08:08:50.598Z,24.6
2018-07-19T08:09:49.013Z,24.6
2018-07-19T08:10:49.635Z,24.6
2018-07-19T08:12:49.052Z,24.6
2018-07-19T08:14:49.144Z,24.7
2018-07-19T08:15:49.606Z,24.7
2018-07-19T08:26:39.844Z,24.7
2018-07-19T08:27:38.730Z,24.7
2018-07-19T08:28:38.660Z,24.7
2018-07-19T08:29:38.681Z,24.7
2018-07-19T08:30:38.664Z,24.7
2018-07-19T08:32:38.743Z,25.2
2018-07-19T08:34:39.372Z,25.4
2018-07-19T08:37:38.773Z,24.5
2018-07-19T08:38:38.734Z,24.5
2018-07-19T08:39:39.288Z,23.9
2018-07-19T08:40:38.691Z,23.9
2018-07-19T08:41:38.729Z,23.9
2018-07-19T08:43:38.756Z,24.0
2018-07-19T08:45:38.709Z,24.6
2018-07-19T08:47:38.712Z,25.1
2018-07-19T08:48:38.680Z,25.1
2018-07-19T08:49:38.664Z,25.8
2018-07-19T08:50:38.646Z,25.8
2018-07-19T08:52:38.681Z,26.1
2018-07-19T08:53:38.725Z,26.1
2018-07-19T08:54:38.748Z,25.8
2018-07-19T08:55:38.700Z,25.8
2018-07-19T08:56:39.338Z,25.8
2018-07-19T08:57:39.979Z,25.8
2018-07-19T08:59:38.712Z,25.4
2018-07-19T09:00:39.350Z,25.4
2018-07-19T09:01:38.759Z,25.4
2018-07-19T09:02:39.356Z,25.3
2018-07-19T09:03:38.728Z,25.3
2018-07-19T09:04:38.708Z,25.3
2018-07-19T09:05:38.762Z,25.3
2018-07-19T09:06:38.731Z,25.3
2018-07-19T09:07:38.691Z,25.7
2018-07-19T09:08:38.748Z,25.7
2018-07-19T09:09:38.678Z,25.7
2018-07-19T09:10:38.823Z,26.4
2018-07-19T09:11:38.803Z,26.4
2018-07-19T09:13:38.737Z,26.5
2018-07-19T09:14:38.754Z,26.5
2018-07-19T09:15:39.323Z,26.4
2018-07-19T09:16:38.720Z,26.4
2018-07-19T09:27:27.292Z,26.5
2018-07-19T09:28:26.090Z,24.4
2018-07-19T09:29:26.170Z,24.4
2018-07-19T09:30:26.173Z,24.9
2018-07-19T09:31:26.110Z,24.9
2018-07-19T09:32:26.167Z,24.9
2018-07-19T09:33:26.679Z,24.7
2018-07-19T09:34:26.834Z,24.7
2018-07-19T09:35:26.127Z,24.8
2018-07-19T09:36:26.203Z,24.8
2018-07-19T09:37:36.267Z,24.8
2018-07-19T09:38:26.944Z,24.8
2018-07-19T09:39:26.761Z,24.8
2018-07-19T09:40:26.166Z,25.0
2018-07-19T09:41:26.179Z,25.0
2018-07-19T09:42:26.184Z,25.0
2018-07-19T09:44:26.221Z,25.2
2018-07-19T09:45:26.333Z,25.2
2018-07-19T09:46:26.198Z,25.2
2018-07-19T09:57:14.098Z,25.2
2018-07-19T09:57:25.340Z,25.2
2018-07-19T09:58:25.278Z,23.6
2018-07-19T09:59:25.381Z,23.6
2018-07-19T10:00:25.311Z,23.6
2018-07-19T10:01:25.396Z,24.0
2018-07-19T10:02:26.076Z,24.0
2018-07-19T10:03:25.540Z,24.2
2018-07-19T10:04:25.340Z,24.2
2018-07-19T10:05:25.328Z,24.2
2018-07-19T10:07:38.489Z,24.9
2018-07-19T10:08:38.320Z,25.6
2018-07-19T10:09:37.853Z,25.6
2018-07-19T10:10:37.872Z,25.6
2018-07-19T10:11:37.902Z,25.8
2018-07-19T10:12:37.849Z,25.8
2018-07-19T10:13:37.817Z,25.6
2018-07-19T10:14:37.781Z,25.6
2018-07-19T10:15:37.841Z,25.6
2018-07-19T10:16:37.827Z,25.4
2018-07-19T10:19:19.436Z,25.4
2018-07-19T10:19:29.642Z,25.4
2018-07-19T10:21:29.754Z,25.6
2018-07-19T10:22:29.725Z,25.6
2018-07-19T10:23:30.402Z,25.7
2018-07-19T10:24:29.792Z,25.7
2018-07-19T10:25:29.619Z,25.7
2018-07-19T10:27:29.718Z,26.0
2018-07-19T10:30:42.867Z,26.1
2018-07-19T10:31:42.872Z,26.6
2018-07-19T10:32:42.864Z,26.6
2018-07-19T10:34:43.621Z,27.2
2018-07-19T10:35:42.835Z,27.2
2018-07-19T10:36:42.874Z,27.4
2018-07-19T10:37:43.048Z,27.4
2018-07-19T10:38:42.922Z,27.4
2018-07-19T10:40:19.255Z,27.4
2018-07-19T10:40:42.975Z,27.4
2018-07-19T10:42:42.919Z,26.7
2018-07-19T10:43:42.903Z,26.7
2018-07-19T10:44:42.996Z,27.2
2018-07-19T10:45:42.909Z,27.2
2018-07-19T10:47:43.028Z,27.6
2018-07-19T10:48:43.002Z,27.6
2018-07-19T10:49:42.969Z,27.7
2018-07-19T10:50:44.934Z,27.7
2018-07-19T10:52:43.017Z,28.0
2018-07-19T10:53:42.971Z,28.0
2018-07-19T10:54:43.050Z,27.9
2018-07-19T10:55:43.536Z,27.9
2018-07-19T10:57:42.953Z,28.4
2018-07-19T10:58:42.915Z,28.4
2018-07-19T10:59:43.671Z,28.4
2018-07-19T11:01:43.598Z,27.0
2018-07-19T11:02:43.093Z,27.0
2018-07-19T11:03:42.975Z,27.0
2018-07-19T11:04:43.081Z,26.4
2018-07-19T11:10:43.076Z,26.2
2018-07-19T11:11:44.295Z,26.2
2018-07-19T11:12:43.031Z,26.1
2018-07-19T11:14:43.048Z,26.1
2018-07-19T11:15:42.965Z,26.1
2018-07-19T11:16:43.074Z,26.1
2018-07-19T11:18:43.062Z,26.5
2018-07-19T11:19:42.988Z,26.4
2018-07-19T11:28:52.531Z,26.4
2018-07-19T11:29:02.726Z,26.4
2018-07-19T11:30:02.710Z,26.6
2018-07-19T11:31:02.774Z,26.6
2018-07-19T11:32:02.733Z,26.6
2018-07-19T11:33:02.854Z,26.4
2018-07-19T11:34:02.752Z,26.4
2018-07-19T11:35:02.735Z,26.4
2018-07-19T11:36:02.700Z,26.4
2018-07-19T11:37:02.804Z,26.4
2018-07-19T11:38:03.297Z,26.1
2018-07-19T11:39:02.735Z,26.1
2018-07-19T11:40:02.684Z,26.1
2018-07-19T11:41:02.774Z,26.1
2018-07-19T11:42:03.377Z,26.1
2018-07-19T11:43:03.289Z,25.4
2018-07-19T11:44:03.383Z,25.4
2018-07-19T11:45:02.812Z,25.5
2018-07-19T11:46:02.746Z,25.5
2018-07-19T11:47:13.349Z,25.5
2018-07-19T11:48:02.795Z,25.9
2018-07-19T11:49:02.910Z,25.9
2018-07-19T11:50:02.757Z,26.1
2018-07-19T11:52:02.835Z,26.1
2018-07-19T11:53:02.777Z,26.6
2018-07-19T11:55:02.691Z,26.5
2018-07-19T11:56:03.778Z,26.5
2018-07-19T11:57:30.948Z,26.5
2018-07-19T11:58:02.818Z,26.8
2018-07-19T11:59:03.382Z,26.8
2018-07-19T12:00:02.854Z,26.4
2018-07-19T12:01:02.724Z,26.4
2018-07-19T12:02:02.729Z,26.4
2018-07-19T12:03:02.843Z,26.5
2018-07-19T12:04:02.849Z,26.5
2018-07-19T12:05:02.826Z,26.5
2018-07-19T12:06:02.740Z,26.1
2018-07-19T12:07:02.745Z,26.1
2018-07-19T12:08:02.749Z,26.3
2018-07-19T12:09:03.431Z,26.3
2018-07-19T12:10:02.813Z,26.3
2018-07-19T12:11:02.806Z,26.6
2018-07-19T12:12:02.782Z,26.6
2018-07-19T12:13:02.744Z,26.4
2018-07-19T12:14:02.771Z,26.4
2018-07-19T12:15:03.312Z,26.4
2018-07-19T12:16:55.419Z,26.2
2018-07-19T12:18:06.692Z,26.6
2018-07-19T12:19:06.602Z,26.6
2018-07-19T12:21:06.629Z,26.6
2018-07-19T12:23:06.627Z,27.6
2018-07-19T12:24:06.615Z,27.6
2018-07-19T12:25:06.681Z,27.6
2018-07-19T12:26:06.629Z,28.0
2018-07-19T12:27:06.726Z,28.0
2018-07-19T12:28:06.570Z,28.3
2018-07-19T12:29:07.210Z,28.3
2018-07-19T12:30:06.657Z,28.3
2018-07-19T12:31:06.652Z,28.7
2018-07-19T12:32:06.572Z,28.7
2018-07-19T12:33:06.641Z,29.0
2018-07-19T12:34:06.625Z,29.0
2018-07-19T12:35:08.451Z,29.0
2018-07-19T12:36:35.458Z,28.9
2018-07-19T12:38:06.574Z,28.9
2018-07-19T12:39:06.607Z,29.4
2018-07-19T12:41:06.625Z,29.6
2018-07-19T12:42:06.674Z,29.6
2018-07-19T12:43:07.978Z,29.6
2018-07-19T12:44:08.069Z,29.9
2018-07-19T12:45:06.776Z,29.9
2018-07-19T12:46:06.559Z,30.1
2018-07-19T12:47:07.800Z,30.1
2018-07-19T12:48:06.648Z,30.1
2018-07-19T12:53:06.662Z,29.4
2018-07-19T12:54:06.593Z,28.6
2018-07-19T12:55:07.240Z,28.6
2018-07-19T12:56:06.712Z,27.8
2018-07-19T12:57:17.311Z,27.8
2018-07-19T12:58:06.659Z,27.8
2018-07-19T12:59:06.639Z,27.6
2018-07-19T13:00:06.749Z,27.6
2018-07-19T13:04:06.821Z,26.8
2018-07-19T13:05:06.789Z,26.8
2018-07-19T13:06:06.627Z,27.2
2018-07-19T13:07:06.652Z,27.2
2018-07-19T13:08:06.787Z,27.2
2018-07-19T13:10:06.685Z,28.1
2018-07-19T13:11:06.768Z,28.1
2018-07-19T13:14:06.723Z,27.9
2018-07-19T13:15:06.861Z,27.9
2018-07-19T13:16:06.712Z,27.9
2018-07-19T13:18:06.683Z,27.6
2018-07-19T13:20:06.718Z,27.5
2018-07-19T13:22:06.823Z,27.2
2018-07-19T13:23:06.691Z,27.2
2018-07-19T13:25:06.665Z,27.3
2018-07-19T13:26:06.648Z,27.3
2018-07-19T13:28:08.026Z,27.9
2018-07-19T13:29:07.678Z,27.8
2018-07-19T13:30:06.711Z,27.8
2018-07-19T13:33:08.093Z,28.4
2018-07-19T13:34:08.130Z,28.3
2018-07-19T13:35:08.144Z,28.3
2018-07-19T13:39:08.133Z,28.5
2018-07-19T13:41:08.101Z,28.6
2018-07-19T13:44:21.794Z,28.7
2018-07-19T13:45:20.978Z,28.7
2018-07-19T13:46:21.019Z,28.7
2018-07-19T13:49:21.095Z,29.2
2018-07-19T13:50:21.037Z,29.2
2018-07-19T13:51:21.117Z,29.2
2018-07-19T13:52:21.033Z,29.2
2018-07-19T13:53:21.695Z,29.2
2018-07-19T14:04:11.212Z,29.2
2018-07-19T14:05:10.169Z,28.6
2018-07-19T14:06:10.206Z,28.6
2018-07-19T14:07:10.179Z,28.5
2018-07-19T14:08:10.168Z,28.5
2018-07-19T14:09:10.263Z,28.5
2018-07-19T14:10:10.159Z,28.7
2018-07-19T14:11:10.250Z,28.7
2018-07-19T14:12:10.431Z,28.7
2018-07-19T14:16:10.200Z,28.2
2018-07-19T14:17:10.220Z,28.2
2018-07-19T14:18:10.158Z,28.4
2018-07-19T14:19:10.355Z,28.4
2018-07-19T14:20:10.714Z,28.4
2018-07-19T14:21:10.301Z,28.4
2018-07-19T14:22:10.257Z,28.4
2018-07-19T14:23:10.222Z,28.4
2018-07-19T14:25:10.285Z,28.1
2018-07-19T14:28:10.358Z,28.3
2018-07-19T14:29:10.372Z,28.3
2018-07-19T14:30:10.248Z,28.2
2018-07-19T14:40:57.268Z,28.2
2018-07-19T14:41:11.480Z,28.2
2018-07-19T14:43:12.665Z,27.5
2018-07-19T14:44:12.664Z,27.5
2018-07-19T14:45:12.667Z,27.5
2018-07-19T14:46:12.646Z,27.9
2018-07-19T14:47:12.567Z,27.9
2018-07-19T14:49:13.077Z,28.0
2018-07-19T14:50:12.594Z,28.0
2018-07-19T14:51:12.560Z,28.4
2018-07-19T14:52:12.644Z,28.4
2018-07-19T14:53:12.691Z,28.5
2018-07-19T14:54:12.583Z,28.5
2018-07-19T14:57:12.751Z,27.6
2018-07-19T14:58:12.611Z,27.6
2018-07-19T14:59:13.190Z,27.6
2018-07-19T15:00:12.769Z,27.6
2018-07-19T15:01:12.636Z,28.4
2018-07-19T15:02:12.635Z,28.4
2018-07-19T15:03:12.682Z,28.4
2018-07-19T15:04:12.624Z,28.4
2018-07-19T15:05:12.682Z,28.4
2018-07-19T15:06:12.673Z,28.8
2018-07-19T15:07:12.684Z,28.8
2018-07-19T15:08:12.703Z,29.2
2018-07-19T15:09:12.605Z,29.2
2018-07-19T15:10:12.637Z,29.2
2018-07-19T15:11:12.618Z,29.5
2018-07-19T15:12:12.677Z,29.5
2018-07-19T15:13:12.704Z,29.2
2018-07-19T15:14:12.716Z,29.2
2018-07-19T15:15:12.696Z,29.2
2018-07-19T15:16:12.603Z,29.8
2018-07-19T15:17:12.619Z,29.8
2018-07-19T15:18:12.667Z,29.8
2018-07-19T15:19:12.602Z,29.8
2018-07-19T15:21:12.603Z,29.4
2018-07-19T15:23:12.690Z,29.4
2018-07-19T15:24:12.658Z,28.8
2018-07-19T15:25:12.574Z,28.8
2018-07-19T15:26:12.626Z,28.8
2018-07-19T15:27:12.737Z,28.8
2018-07-19T15:28:12.684Z,28.8
2018-07-19T15:29:12.710Z,29.1
2018-07-19T15:30:12.620Z,29.1
2018-07-19T15:31:16.084Z,29.4
2018-07-19T15:32:12.676Z,29.4
2018-07-19T15:33:12.648Z,29.4
2018-07-19T15:34:13.302Z,29.1
2018-07-19T15:35:12.578Z,29.1
2018-07-19T15:36:12.760Z,28.9
2018-07-19T15:37:12.671Z,28.9
2018-07-19T15:38:12.737Z,28.9
2018-07-19T15:39:12.643Z,28.9
2018-07-19T15:40:12.611Z,28.9
2018-07-19T15:41:13.348Z,29.1
2018-07-19T15:43:12.663Z,29.1
2018-07-19T15:44:13.198Z,29.1
2018-07-19T15:45:12.723Z,29.1
2018-07-19T15:46:12.753Z,29.1
2018-07-19T15:47:12.827Z,29.3
2018-07-19T15:48:12.745Z,29.3
2018-07-19T15:49:13.598Z,28.7
2018-07-19T15:50:12.823Z,28.7
2018-07-19T15:51:12.971Z,28.7
2018-07-19T15:52:12.976Z,28.5
2018-07-19T15:54:12.981Z,28.4
2018-07-19T15:55:13.102Z,28.4
2018-07-19T15:56:12.969Z,28.4
2018-07-19T15:57:12.993Z,28.7
2018-07-19T15:58:13.103Z,28.7
2018-07-19T15:59:12.950Z,28.8
2018-07-19T16:00:12.762Z,28.8
2018-07-19T16:01:12.786Z,28.8
2018-07-19T16:02:12.930Z,28.6
2018-07-19T16:04:12.870Z,28.6
2018-07-19T16:05:12.824Z,28.6
2018-07-19T16:06:12.930Z,28.6
2018-07-19T16:07:12.726Z,28.1
2018-07-19T16:08:12.948Z,28.1
2018-07-19T16:09:13.122Z,28.0
2018-07-19T16:10:12.992Z,28.0
2018-07-19T16:11:12.949Z,28.0
2018-07-19T16:12:13.007Z,28.2
2018-07-19T16:13:15.549Z,28.2
2018-07-19T16:14:41.095Z,28.5
2018-07-19T16:15:12.945Z,28.5
2018-07-19T16:16:12.860Z,28.5
2018-07-19T16:17:15.268Z,28.5
2018-07-19T16:18:15.504Z,28.5
2018-07-19T16:19:12.837Z,28.5
2018-07-19T16:20:12.757Z,28.8
2018-07-19T16:21:12.797Z,28.8
2018-07-19T16:23:12.776Z,28.9
2018-07-19T16:24:12.745Z,28.9
2018-07-19T16:26:25.587Z,28.9
2018-07-19T16:27:25.693Z,28.1
2018-07-19T16:28:25.746Z,28.1
2018-07-19T16:29:25.573Z,28.1
2018-07-19T16:30:25.560Z,27.8
2018-07-19T16:32:25.573Z,28.4
2018-07-19T16:33:25.497Z,28.4
2018-07-19T16:34:25.526Z,28.4
2018-07-19T16:35:25.582Z,28.6
2018-07-19T16:39:43.690Z,28.6
2018-07-19T16:41:54.483Z,28.8
2018-07-19T16:42:54.023Z,28.6
2018-07-19T16:43:53.823Z,28.6
2018-07-19T16:44:53.842Z,28.4
2018-07-19T16:45:53.813Z,28.4
2018-07-19T16:46:53.773Z,28.4
2018-07-19T16:47:54.614Z,27.8
2018-07-19T16:48:53.811Z,27.8
2018-07-19T16:49:53.776Z,28.0
2018-07-19T16:50:53.774Z,28.0
2018-07-19T16:51:53.782Z,28.0
2018-07-19T16:52:53.840Z,28.1
2018-07-19T16:53:57.415Z,28.1
2018-07-19T16:54:53.816Z,28.2
2018-07-19T16:55:53.939Z,28.2
2018-07-19T16:57:04.744Z,28.2
2018-07-19T16:57:55.839Z,28.1
2018-07-19T16:58:59.806Z,28.1
2018-07-19T17:00:55.777Z,27.8
2018-07-19T17:01:57.537Z,27.8